createdAt,value
2017-05-18T00:00:14.358Z,1005.91
2017-05-18T00:01:24.572Z,1005.94
2017-05-18T00:02:34.478Z,1005.92
2017-05-18T00:03:43.781Z,1005.93
2017-05-18T00:04:53.402Z,1005.92
2017-05-18T00:06:03.321Z,1005.9
2017-05-18T00:07:12.303Z,1005.91
2017-05-18T00:08:22.522Z,1005.89
2017-05-18T00:09:32.433Z,1005.87
2017-05-18T00:10:42.349Z,1005.85
2017-05-18T00:11:52.570Z,1005.86
2017-05-18T00:13:02.809Z,1005.83
2017-05-18T00:14:12.739Z,1005.84
2017-05-18T00:15:22.964Z,1005.83
2017-05-18T00:16:32.881Z,1005.78
2017-05-18T00:17:43.112Z,1005.77
2017-05-18T00:18:53.021Z,1005.82
2017-05-18T00:20:03.239Z,1005.78
2017-05-18T00:21:13.164Z,1005.72
2017-05-18T00:22:23.386Z,1005.73
2017-05-18T00:23:33.314Z,1005.72
2017-05-18T00:24:43.245Z,1005.7
2017-05-18T00:25:53.456Z,1005.67
2017-05-18T00:27:03.683Z,1005.68
2017-05-18T00:28:13.312Z,1005.67
2017-05-18T00:29:23.541Z,1005.64
2017-05-18T00:30:33.456Z,1005.65
2017-05-18T00:31:43.370Z,1005.67
2017-05-18T00:32:53.366Z,1005.66
2017-05-18T00:34:03.289Z,1005.67
2017-05-18T00:35:13.195Z,1005.62
2017-05-18T00:36:23.419Z,1005.63
2017-05-18T00:37:33.625Z,1005.63
2017-05-18T00:38:43.545Z,1005.59
2017-05-18T00:39:53.457Z,1005.61
2017-05-18T00:41:03.375Z,1005.6
2017-05-18T00:42:12.978Z,1005.59
2017-05-18T00:43:22.886Z,1005.55
2017-05-18T00:44:33.107Z,1005.56
2017-05-18T00:45:43.026Z,1005.58
2017-05-18T00:46:53.243Z,1005.59
2017-05-18T00:48:03.459Z,1005.55
2017-05-18T00:49:13.726Z,1005.56
2017-05-18T00:50:23.334Z,1005.56
2017-05-18T00:51:33.549Z,1005.52
2017-05-18T00:52:43.161Z,1005.57
2017-05-18T00:53:53.382Z,1005.53
2017-05-18T00:55:03.295Z,1005.6
2017-05-18T00:56:13.268Z,1005.54
2017-05-18T00:57:23.045Z,1005.56
2017-05-18T00:58:32.347Z,1005.58
2017-05-18T00:59:42.262Z,1005.58
2017-05-18T01:00:52.490Z,1005.6
2017-05-18T01:02:02.468Z,1005.56
2017-05-18T01:03:12.687Z,1005.59
2017-05-18T01:04:21.733Z,1005.55
2017-05-18T01:05:31.344Z,1005.54
2017-05-18T01:06:41.257Z,1005.58
2017-05-18T01:07:50.854Z,1005.56
2017-05-18T01:09:00.773Z,1005.57
2017-05-18T01:10:10.388Z,1005.62
2017-05-18T01:11:19.991Z,1005.58
2017-05-18T01:12:29.902Z,1005.61
2017-05-18T01:13:40.120Z,1005.58
2017-05-18T01:14:50.040Z,1005.59
2017-05-18T01:15:59.661Z,1005.6
2017-05-18T01:17:09.272Z,1005.64
2017-05-18T01:18:18.873Z,1005.56
2017-05-18T01:19:29.100Z,1005.63
2017-05-18T01:20:39.004Z,1005.64
2017-05-18T01:21:48.908Z,1005.62
2017-05-18T01:22:58.810Z,1005.66
2017-05-18T01:24:09.025Z,1005.68
2017-05-18T01:25:18.993Z,1005.7
2017-05-18T01:26:28.969Z,1005.72
2017-05-18T01:27:39.224Z,1005.7
2017-05-18T01:28:49.442Z,1005.75
2017-05-18T01:29:59.667Z,1005.74
2017-05-18T01:31:09.273Z,1005.74
2017-05-18T01:32:19.506Z,1005.8
2017-05-18T01:33:29.409Z,1005.8
2017-05-18T01:34:39.326Z,1005.78
2017-05-18T01:35:49.762Z,1005.8
2017-05-18T01:36:59.979Z,1005.9
2017-05-18T01:38:09.585Z,1005.84
2017-05-18T01:39:19.511Z,1005.86
2017-05-18T01:40:28.818Z,1005.88
2017-05-18T01:41:39.038Z,1005.91
2017-05-18T01:42:48.963Z,1005.93
2017-05-18T01:43:59.181Z,1005.9
2017-05-18T01:45:09.446Z,1005.91
2017-05-18T01:46:19.663Z,1005.93
2017-05-18T01:47:29.888Z,1005.95
2017-05-18T01:48:39.809Z,1005.91
2017-05-18T01:49:49.734Z,1005.94
2017-05-18T01:50:59.688Z,1005.97
2017-05-18T01:52:09.300Z,1005.94
2017-05-18T01:53:19.525Z,1006.02
2017-05-18T01:54:29.137Z,1005.99
2017-05-18T01:55:38.743Z,1006.04
2017-05-18T01:56:48.971Z,1006.09
2017-05-18T01:57:59.199Z,1006.11
2017-05-18T01:59:09.461Z,1006.1
2017-05-18T02:00:19.686Z,1006.14
2017-05-18T02:01:29.996Z,1006.14
2017-05-18T02:02:40.201Z,1006.13
2017-05-18T02:03:50.117Z,1006.16
2017-05-18T02:05:00.339Z,1006.17
2017-05-18T02:06:10.575Z,1006.21
2017-05-18T02:07:20.496Z,1006.17
2017-05-18T02:08:30.401Z,1006.17
2017-05-18T02:09:40.000Z,1006.15
2017-05-18T02:10:49.911Z,1006.16
2017-05-18T02:12:00.187Z,1006.19
2017-05-18T02:13:10.405Z,1006.17
2017-05-18T02:14:20.682Z,1006.12
2017-05-18T02:15:30.625Z,1006.14
2017-05-18T02:16:40.543Z,1006.16
2017-05-18T02:17:50.458Z,1006.2
2017-05-18T02:19:00.680Z,1006.2
2017-05-18T02:20:10.663Z,1006.17
2017-05-18T02:21:20.905Z,1006.11
2017-05-18T02:22:30.841Z,1006.11
2017-05-18T02:23:40.771Z,1006.12
2017-05-18T02:24:50.678Z,1006.08
2017-05-18T02:26:00.631Z,1006.11
2017-05-18T02:27:10.549Z,1006.11
2017-05-18T02:28:20.152Z,1006.12
2017-05-18T02:29:29.764Z,1006.14
2017-05-18T02:30:39.979Z,1006.16
2017-05-18T02:31:50.185Z,1006.15
2017-05-18T02:33:00.402Z,1006.12
2017-05-18T02:34:10.313Z,1006.13
2017-05-18T02:35:20.221Z,1006.06
2017-05-18T02:36:30.124Z,1006.1
2017-05-18T02:37:40.346Z,1006.06
2017-05-18T02:38:50.253Z,1006.06
2017-05-18T02:40:00.155Z,1006.09
2017-05-18T02:41:10.063Z,1006.11
2017-05-18T02:42:19.995Z,1006.1
2017-05-18T02:43:29.897Z,1006.15
2017-05-18T02:44:39.190Z,1006.16
2017-05-18T02:45:49.096Z,1006.18
2017-05-18T02:46:59.307Z,1006.15
2017-05-18T02:48:09.219Z,1006.13
2017-05-18T02:49:19.442Z,1006.17
2017-05-18T02:50:29.058Z,1006.13
2017-05-18T02:51:38.682Z,1006.13
2017-05-18T02:52:48.284Z,1006.15
2017-05-18T02:53:58.506Z,1006.18
2017-05-18T02:55:08.123Z,1006.16
2017-05-18T02:56:18.346Z,1006.21
2017-05-18T02:57:28.255Z,1006.21
2017-05-18T02:58:37.861Z,1006.24
2017-05-18T02:59:47.459Z,1006.25
2017-05-18T03:00:57.376Z,1006.24
2017-05-18T03:02:06.982Z,1006.22
2017-05-18T03:03:16.579Z,1006.23
2017-05-18T03:04:26.185Z,1006.22
2017-05-18T03:05:36.105Z,1006.22
2017-05-18T03:06:46.014Z,1006.22
2017-05-18T03:07:55.955Z,1006.23
2017-05-18T03:09:05.599Z,1006.21
2017-05-18T03:10:15.192Z,1006.24
2017-05-18T03:11:25.146Z,1006.3
2017-05-18T03:12:35.361Z,1006.3
2017-05-18T03:13:45.273Z,1006.34
2017-05-18T03:14:55.491Z,1006.36
2017-05-18T03:16:05.405Z,1006.38
2017-05-18T03:17:15.311Z,1006.39
2017-05-18T03:18:25.221Z,1006.37
2017-05-18T03:19:35.455Z,1006.39
2017-05-18T03:20:45.071Z,1006.41
2017-05-18T03:21:55.296Z,1006.42
2017-05-18T03:23:05.557Z,1006.41
2017-05-18T03:24:15.469Z,1006.43
2017-05-18T03:25:25.685Z,1006.43
2017-05-18T03:26:34.983Z,1006.43
2017-05-18T03:27:44.890Z,1006.44
2017-05-18T03:28:54.965Z,1006.4
2017-05-18T03:30:05.198Z,1006.41
2017-05-18T03:31:15.413Z,1006.4
2017-05-18T03:32:25.011Z,1006.39
2017-05-18T03:33:34.923Z,1006.42
2017-05-18T03:34:45.143Z,1006.46
2017-05-18T03:35:55.055Z,1006.42
2017-05-18T03:37:04.967Z,1006.34
2017-05-18T03:38:14.875Z,1006.32
2017-05-18T03:39:24.798Z,1006.31
2017-05-18T03:40:34.718Z,1006.25
2017-05-18T03:41:44.378Z,1006.24
2017-05-18T03:42:53.370Z,1006.31
2017-05-18T03:44:02.975Z,1006.29
2017-05-18T03:45:12.876Z,1006.27
2017-05-18T03:46:23.095Z,1006.23
2017-05-18T03:47:32.998Z,1006.23
2017-05-18T03:48:42.899Z,1006.24
2017-05-18T03:49:52.501Z,1006.21
2017-05-18T03:51:02.409Z,1006.21
2017-05-18T03:52:12.628Z,1006.24
2017-05-18T03:53:22.842Z,1006.24
2017-05-18T03:54:32.442Z,1006.22
2017-05-18T03:55:42.352Z,1006.23
2017-05-18T03:56:52.572Z,1006.2
2017-05-18T03:58:02.171Z,1006.23
2017-05-18T03:59:12.068Z,1006.23
2017-05-18T04:00:21.989Z,1006.18
2017-05-18T04:01:32.211Z,1006.18
2017-05-18T04:02:42.119Z,1006.15
2017-05-18T04:03:51.731Z,1006.17
2017-05-18T04:05:01.950Z,1006.16
2017-05-18T04:06:11.559Z,1006.17
2017-05-18T04:07:21.465Z,1006.19
2017-05-18T04:08:31.374Z,1006.23
2017-05-18T04:09:41.593Z,1006.2
2017-05-18T04:10:51.530Z,1006.2
2017-05-18T04:12:01.426Z,1006.19
2017-05-18T04:13:11.032Z,1006.2
2017-05-18T04:14:20.620Z,1006.14
2017-05-18T04:15:30.538Z,1006.14
2017-05-18T04:16:40.206Z,1006.16
2017-05-18T04:17:50.417Z,1006.21
2017-05-18T04:19:00.667Z,1006.25
2017-05-18T04:20:10.308Z,1006.23
2017-05-18T04:21:19.900Z,1006.24
2017-05-18T04:22:29.500Z,1006.29
2017-05-18T04:23:39.415Z,1006.28
2017-05-18T04:24:49.643Z,1006.29
2017-05-18T04:25:59.251Z,1006.31
2017-05-18T04:27:09.167Z,1006.34
2017-05-18T04:28:18.759Z,1006.29
2017-05-18T04:29:28.992Z,1006.27
2017-05-18T04:30:38.897Z,1006.24
2017-05-18T04:31:49.123Z,1006.29
2017-05-18T04:32:58.742Z,1006.25
2017-05-18T04:34:08.644Z,1006.29
2017-05-18T04:35:18.862Z,1006.28
2017-05-18T04:36:29.073Z,1006.28
2017-05-18T04:37:39.298Z,1006.24
2017-05-18T04:38:49.566Z,1006.22
2017-05-18T04:39:59.769Z,1006.22
2017-05-18T04:41:09.364Z,1006.22
2017-05-18T04:42:19.325Z,1006.26
2017-05-18T04:43:29.554Z,1006.24
2017-05-18T04:44:39.469Z,1006.24
2017-05-18T04:45:49.684Z,1006.22
2017-05-18T04:46:59.602Z,1006.23
2017-05-18T04:48:09.516Z,1006.27
2017-05-18T04:49:19.493Z,1006.28
2017-05-18T04:50:29.727Z,1006.28
2017-05-18T04:51:40.000Z,1006.34
2017-05-18T04:52:49.603Z,1006.38
2017-05-18T04:53:59.828Z,1006.33
2017-05-18T04:55:10.040Z,1006.36
2017-05-18T04:56:20.265Z,1006.38
2017-05-18T04:57:29.917Z,1006.38
2017-05-18T04:58:39.848Z,1006.38
2017-05-18T04:59:49.758Z,1006.42
2017-05-18T05:00:59.968Z,1006.44
2017-05-18T05:02:09.900Z,1006.54
2017-05-18T05:03:19.802Z,1006.54
2017-05-18T05:04:29.716Z,1006.58
2017-05-18T05:05:39.936Z,1006.62
2017-05-18T05:06:49.533Z,1006.64
2017-05-18T05:08:00.129Z,1006.58
2017-05-18T05:09:09.727Z,1006.58
2017-05-18T05:10:19.952Z,1006.57
2017-05-18T05:11:29.564Z,1006.51
2017-05-18T05:12:39.793Z,1006.43
2017-05-18T05:13:50.026Z,1006.45
2017-05-18T05:14:59.958Z,1006.49
2017-05-18T05:16:09.885Z,1006.56
2017-05-18T05:17:19.790Z,1006.62
2017-05-18T05:18:29.395Z,1006.63
2017-05-18T05:19:38.998Z,1006.54
2017-05-18T05:20:49.217Z,1006.5
2017-05-18T05:21:58.817Z,1006.49
2017-05-18T05:23:08.724Z,1006.57
2017-05-18T05:24:18.958Z,1006.57
2017-05-18T05:25:28.871Z,1006.51
2017-05-18T05:26:38.778Z,1006.51
2017-05-18T05:27:48.989Z,1006.53
2017-05-18T05:28:59.222Z,1006.62
2017-05-18T05:30:09.434Z,1006.74
2017-05-18T05:31:19.346Z,1006.77
2017-05-18T05:32:29.550Z,1006.86
2017-05-18T05:33:39.779Z,1006.86
2017-05-18T05:34:49.686Z,1006.84
2017-05-18T05:35:59.902Z,1006.92
2017-05-18T05:37:10.624Z,1006.99
2017-05-18T05:38:20.230Z,1006.97
2017-05-18T05:39:29.823Z,1007.01
2017-05-18T05:40:39.749Z,1007
2017-05-18T05:41:49.351Z,1007.07
2017-05-18T05:42:59.304Z,1007.09
2017-05-18T05:44:09.201Z,1007.05
2017-05-18T05:45:19.111Z,1007.02
2017-05-18T05:46:29.327Z,1007.05
2017-05-18T05:47:39.546Z,1007.08
2017-05-18T05:48:49.228Z,1007.08
2017-05-18T05:49:59.147Z,1007.15
2017-05-18T05:51:07.832Z,1007.17
2017-05-18T05:52:17.800Z,1007.21
2017-05-18T05:53:28.028Z,1007.25
2017-05-18T05:54:37.627Z,1007.29
2017-05-18T05:55:47.843Z,1007.31
2017-05-18T05:56:57.752Z,1007.33
2017-05-18T05:58:07.968Z,1007.3
2017-05-18T05:59:18.180Z,1007.29
2017-05-18T06:00:28.087Z,1007.27
2017-05-18T06:01:37.410Z,1007.34
2017-05-18T06:02:47.638Z,1007.29
2017-05-18T06:03:57.250Z,1007.32
2017-05-18T06:05:07.470Z,1007.31
2017-05-18T06:06:17.071Z,1007.32
2017-05-18T06:07:27.277Z,1007.37
2017-05-18T06:08:37.498Z,1007.4
2017-05-18T06:09:47.714Z,1007.4
2017-05-18T06:10:57.627Z,1007.4
2017-05-18T06:12:07.857Z,1007.39
2017-05-18T06:13:18.071Z,1007.4
2017-05-18T06:14:27.676Z,1007.41
2017-05-18T06:15:36.686Z,1007.42
2017-05-18T06:16:45.827Z,1007.44
2017-05-18T06:17:55.422Z,1007.47
2017-05-18T06:19:05.648Z,1007.48
2017-05-18T06:20:15.887Z,1007.44
2017-05-18T06:21:25.801Z,1007.39
2017-05-18T06:22:36.019Z,1007.36
2017-05-18T06:23:46.296Z,1007.42
2017-05-18T06:24:56.516Z,1007.39
2017-05-18T06:26:06.733Z,1007.42
2017-05-18T06:27:16.650Z,1007.46
2017-05-18T06:28:26.561Z,1007.45
2017-05-18T06:29:36.571Z,1007.46
2017-05-18T06:30:46.207Z,1007.48
2017-05-18T06:31:56.133Z,1007.47
2017-05-18T06:33:06.051Z,1007.52
2017-05-18T06:34:15.654Z,1007.48
2017-05-18T06:35:26.372Z,1007.55
2017-05-18T06:36:36.594Z,1007.48
2017-05-18T06:37:46.216Z,1007.56
2017-05-18T06:38:56.132Z,1007.5
2017-05-18T06:40:05.746Z,1007.47
2017-05-18T06:41:15.403Z,1007.44
2017-05-18T06:42:25.643Z,1007.5
2017-05-18T06:43:35.873Z,1007.54
2017-05-18T06:44:46.116Z,1007.62
2017-05-18T06:45:56.022Z,1007.68
2017-05-18T06:47:05.949Z,1007.82
2017-05-18T06:48:15.566Z,1007.83
2017-05-18T06:49:25.488Z,1007.82
2017-05-18T06:50:35.403Z,1007.77
2017-05-18T06:51:44.694Z,1007.81
2017-05-18T06:52:54.316Z,1007.8
2017-05-18T06:54:04.529Z,1007.84
2017-05-18T06:55:14.442Z,1007.87
2017-05-18T06:56:24.356Z,1007.83
2017-05-18T06:57:33.966Z,1007.76
2017-05-18T06:58:43.875Z,1007.71
2017-05-18T06:59:53.793Z,1007.64
2017-05-18T07:01:03.713Z,1007.62
2017-05-18T07:02:13.325Z,1007.66
2017-05-18T07:03:23.561Z,1007.64
2017-05-18T07:04:32.861Z,1007.67
2017-05-18T07:05:42.161Z,1007.63
2017-05-18T07:06:52.083Z,1007.6
2017-05-18T07:08:02.007Z,1007.6
2017-05-18T07:09:12.246Z,1007.61
2017-05-18T07:10:21.860Z,1007.69
2017-05-18T07:11:31.764Z,1007.73
2017-05-18T07:12:41.111Z,1007.75
2017-05-18T07:13:50.719Z,1007.75
2017-05-18T07:15:00.943Z,1007.75
2017-05-18T07:16:10.851Z,1007.74
2017-05-18T07:17:21.097Z,1007.74
2017-05-18T07:18:31.313Z,1007.7
2017-05-18T07:19:41.244Z,1007.73
2017-05-18T07:20:51.189Z,1007.66
2017-05-18T07:22:00.496Z,1007.69
2017-05-18T07:23:10.736Z,1007.62
2017-05-18T07:24:20.034Z,1007.64
2017-05-18T07:25:29.947Z,1007.68
2017-05-18T07:26:39.249Z,1007.73
2017-05-18T07:27:48.853Z,1007.78
2017-05-18T07:28:59.079Z,1007.8
2017-05-18T07:30:09.383Z,1007.83
2017-05-18T07:31:19.000Z,1007.86
2017-05-18T07:32:28.622Z,1007.86
2017-05-18T07:33:38.238Z,1007.89
2017-05-18T07:34:48.155Z,1007.88
2017-05-18T07:35:58.087Z,1007.89
2017-05-18T07:37:07.995Z,1007.84
2017-05-18T07:38:17.620Z,1007.88
2017-05-18T07:39:27.541Z,1007.87
2017-05-18T07:40:37.460Z,1007.88
2017-05-18T07:41:47.684Z,1007.83
2017-05-18T07:42:57.316Z,1007.86
2017-05-18T07:44:07.548Z,1007.9
2017-05-18T07:45:16.565Z,1007.86
2017-05-18T07:46:26.183Z,1007.84
2017-05-18T07:47:35.797Z,1007.78
2017-05-18T07:48:46.031Z,1007.83
2017-05-18T07:49:56.247Z,1007.82
2017-05-18T07:51:05.869Z,1007.85
2017-05-18T07:52:15.485Z,1007.78
2017-05-18T07:53:25.413Z,1007.82
2017-05-18T07:54:35.023Z,1007.79
2017-05-18T07:55:45.241Z,1007.78
2017-05-18T07:56:54.857Z,1007.77
2017-05-18T07:58:04.791Z,1007.8
2017-05-18T07:59:14.705Z,1007.79
2017-05-18T08:00:24.616Z,1007.87
2017-05-18T08:01:34.825Z,1007.83
2017-05-18T08:02:44.754Z,1007.83
2017-05-18T08:03:54.730Z,1007.84
2017-05-18T08:05:04.950Z,1007.84
2017-05-18T08:06:14.864Z,1007.81
2017-05-18T08:07:24.775Z,1007.83
2017-05-18T08:08:35.001Z,1007.81
2017-05-18T08:09:45.285Z,1007.82
2017-05-18T08:10:55.206Z,1007.82
2017-05-18T08:12:04.817Z,1007.79
2017-05-18T08:13:14.739Z,1007.78
2017-05-18T08:14:24.684Z,1007.8
2017-05-18T08:15:34.609Z,1007.79
2017-05-18T08:16:44.517Z,1007.8
2017-05-18T08:17:54.125Z,1007.71
2017-05-18T08:19:04.052Z,1007.75
2017-05-18T08:20:13.960Z,1007.79
2017-05-18T08:21:23.871Z,1007.83
2017-05-18T08:22:33.941Z,1007.81
2017-05-18T08:24:09.830Z,1007.84
2017-05-18T08:25:19.744Z,1007.83
2017-05-18T08:26:29.679Z,1007.85
2017-05-18T08:27:39.903Z,1007.87
2017-05-18T08:28:49.829Z,1007.85
2017-05-18T08:29:59.757Z,1007.89
2017-05-18T08:31:09.378Z,1007.92
2017-05-18T08:32:19.305Z,1007.95
2017-05-18T08:33:28.622Z,1007.93
2017-05-18T08:34:38.527Z,1007.94
2017-05-18T08:35:48.749Z,1007.94
2017-05-18T08:36:58.358Z,1007.96
2017-05-18T08:38:08.593Z,1007.95
2017-05-18T08:39:18.525Z,1007.93
2017-05-18T08:40:27.554Z,1007.95
2017-05-18T08:41:37.182Z,1007.93
2017-05-18T08:42:47.098Z,1007.95
2017-05-18T08:43:57.020Z,1007.9
2017-05-18T08:45:06.628Z,1007.91
2017-05-18T08:46:15.930Z,1007.87
2017-05-18T08:47:25.854Z,1007.94
2017-05-18T08:48:36.080Z,1007.89
2017-05-18T08:49:45.998Z,1007.92
2017-05-18T08:50:55.923Z,1007.92
2017-05-18T08:52:05.534Z,1007.92
2017-05-18T08:53:15.452Z,1007.89
2017-05-18T08:54:25.681Z,1007.9
2017-05-18T08:55:35.609Z,1007.85
2017-05-18T08:56:45.516Z,1007.88
2017-05-18T08:57:55.725Z,1007.85
2017-05-18T08:59:05.371Z,1007.88
2017-05-18T09:00:14.989Z,1007.86
2017-05-18T09:01:24.896Z,1007.85
2017-05-18T09:02:34.814Z,1007.87
2017-05-18T09:03:44.430Z,1007.84
2017-05-18T09:04:54.363Z,1007.84
2017-05-18T09:06:04.593Z,1007.82
2017-05-18T09:07:14.202Z,1007.83
2017-05-18T09:08:23.804Z,1007.83
2017-05-18T09:09:33.733Z,1007.79
2017-05-18T09:10:43.717Z,1007.79
2017-05-18T09:11:53.350Z,1007.76
2017-05-18T09:13:02.962Z,1007.72
2017-05-18T09:14:12.579Z,1007.73
2017-05-18T09:15:21.917Z,1007.67
2017-05-18T09:16:31.527Z,1007.71
2017-05-18T09:17:41.150Z,1007.74
2017-05-18T09:18:50.450Z,1007.72
2017-05-18T09:20:00.387Z,1007.75
2017-05-18T09:21:09.992Z,1007.69
2017-05-18T09:22:19.611Z,1007.76
2017-05-18T09:23:29.290Z,1007.74
2017-05-18T09:24:38.901Z,1007.73
2017-05-18T09:25:48.516Z,1007.73
2017-05-18T09:26:58.129Z,1007.72
2017-05-18T09:28:08.051Z,1007.74
2017-05-18T09:29:18.273Z,1007.73
2017-05-18T09:30:28.194Z,1007.78
2017-05-18T09:31:37.877Z,1007.79
2017-05-18T09:32:47.786Z,1007.77
2017-05-18T09:33:57.092Z,1007.78
2017-05-18T09:35:07.021Z,1007.75
2017-05-18T09:36:16.628Z,1007.77
2017-05-18T09:37:26.859Z,1007.73
2017-05-18T09:38:36.796Z,1007.74
2017-05-18T09:39:46.721Z,1007.71
2017-05-18T09:40:56.647Z,1007.69
2017-05-18T09:42:06.599Z,1007.73
2017-05-18T09:43:16.538Z,1007.68
2017-05-18T09:44:26.772Z,1007.63
2017-05-18T09:45:36.697Z,1007.66
2017-05-18T09:46:46.613Z,1007.6
2017-05-18T09:47:55.909Z,1007.62
2017-05-18T09:49:05.824Z,1007.67
2017-05-18T09:50:15.737Z,1007.64
2017-05-18T09:51:25.651Z,1007.62
2017-05-18T09:52:35.567Z,1007.65
2017-05-18T09:53:45.793Z,1007.61
2017-05-18T09:54:56.021Z,1007.57
2017-05-18T09:56:05.378Z,1007.59
2017-05-18T09:57:15.308Z,1007.55
2017-05-18T09:58:25.535Z,1007.57
2017-05-18T09:59:35.447Z,1007.59
2017-05-18T10:00:45.052Z,1007.57
2017-05-18T10:01:55.017Z,1007.52
2017-05-18T10:03:05.237Z,1007.57
2017-05-18T10:04:14.608Z,1007.6
2017-05-18T10:05:24.515Z,1007.61
2017-05-18T10:06:34.128Z,1007.7
2017-05-18T10:07:44.058Z,1007.79
2017-05-18T10:08:54.291Z,1007.83
2017-05-18T10:10:04.202Z,1007.89
2017-05-18T10:11:14.114Z,1007.87
2017-05-18T10:12:24.023Z,1007.82
2017-05-18T10:13:33.639Z,1007.78
2017-05-18T10:14:42.942Z,1007.78
2017-05-18T10:15:52.850Z,1007.86
2017-05-18T10:17:02.467Z,1007.89
2017-05-18T10:18:12.450Z,1007.86
2017-05-18T10:19:22.670Z,1007.86
2017-05-18T10:20:32.889Z,1007.83
2017-05-18T10:21:42.808Z,1007.82
2017-05-18T10:22:53.040Z,1007.8
2017-05-18T10:24:02.957Z,1007.78
2017-05-18T10:25:12.252Z,1007.83
2017-05-18T10:26:22.169Z,1007.88
2017-05-18T10:27:32.407Z,1007.82
2017-05-18T10:28:42.324Z,1007.91
2017-05-18T10:29:52.544Z,1008.02
2017-05-18T10:31:02.158Z,1008.08
2017-05-18T10:32:12.077Z,1008.19
2017-05-18T10:33:21.997Z,1008.19
2017-05-18T10:34:31.924Z,1008.23
2017-05-18T10:35:41.529Z,1008.19
2017-05-18T10:36:51.744Z,1008.19
2017-05-18T10:38:01.979Z,1008.15
2017-05-18T10:39:12.203Z,1008.15
2017-05-18T10:40:21.819Z,1008.15
2017-05-18T10:41:31.736Z,1008.16
2017-05-18T10:42:41.956Z,1008.17
2017-05-18T10:43:52.190Z,1008.2
2017-05-18T10:45:02.110Z,1008.21
2017-05-18T10:46:12.333Z,1008.19
2017-05-18T10:47:21.945Z,1008.17
2017-05-18T10:48:31.563Z,1008.15
2017-05-18T10:49:41.485Z,1008.09
2017-05-18T10:50:50.804Z,1008.06
2017-05-18T10:52:00.715Z,1008.08
2017-05-18T10:53:10.332Z,1008.11
2017-05-18T10:54:20.243Z,1008.08
2017-05-18T10:55:29.544Z,1008.02
2017-05-18T10:56:39.763Z,1008
2017-05-18T10:57:49.375Z,1007.92
2017-05-18T10:58:59.002Z,1007.93
2017-05-18T11:00:08.631Z,1008.03
2017-05-18T11:01:18.543Z,1008.05
2017-05-18T11:02:28.461Z,1008.11
2017-05-18T11:03:38.689Z,1008.1
2017-05-18T11:04:48.607Z,1008.14
2017-05-18T11:05:58.524Z,1008.14
2017-05-18T11:07:08.746Z,1008.11
2017-05-18T11:08:18.352Z,1008.06
2017-05-18T11:09:28.275Z,1008.08
2017-05-18T11:10:38.503Z,1008.1
2017-05-18T11:11:48.446Z,1008.07
2017-05-18T11:12:58.352Z,1008.1
2017-05-18T11:14:08.262Z,1008.11
2017-05-18T11:15:18.175Z,1008.19
2017-05-18T11:16:28.154Z,1008.19
2017-05-18T11:17:38.083Z,1008.16
2017-05-18T11:18:48.308Z,1008.17
2017-05-18T11:19:58.548Z,1008.12
2017-05-18T11:21:08.477Z,1008.1
2017-05-18T11:22:18.700Z,1008.11
2017-05-18T11:23:28.306Z,1008.09
2017-05-18T11:24:38.230Z,1008.07
2017-05-18T11:25:48.136Z,1008.04
2017-05-18T11:26:58.355Z,1008.06
2017-05-18T11:28:07.664Z,1008.05
2017-05-18T11:29:17.585Z,1008.05
2017-05-18T11:30:27.509Z,1007.97
2017-05-18T11:31:37.446Z,1007.99
2017-05-18T11:32:47.677Z,1007.98
2017-05-18T11:33:57.288Z,1007.96
2017-05-18T11:35:06.903Z,1008
2017-05-18T11:36:16.531Z,1008.08
2017-05-18T11:37:26.465Z,1008.19
2017-05-18T11:38:36.398Z,1008.19
2017-05-18T11:39:46.630Z,1008.18
2017-05-18T11:40:56.871Z,1008.14
2017-05-18T11:42:07.087Z,1008.17
2017-05-18T11:43:16.713Z,1008.17
2017-05-18T11:44:26.038Z,1008.21
2017-05-18T11:45:35.955Z,1008.24
2017-05-18T11:46:45.555Z,1008.23
2017-05-18T11:47:55.758Z,1008.33
2017-05-18T11:49:05.365Z,1008.31
2017-05-18T11:50:15.275Z,1008.31
2017-05-18T11:51:24.882Z,1008.27
2017-05-18T11:52:35.102Z,1008.29
2017-05-18T11:53:45.329Z,1008.28
2017-05-18T11:54:54.962Z,1008.3
2017-05-18T11:56:04.579Z,1008.31
2017-05-18T11:57:14.552Z,1008.34
2017-05-18T11:58:23.907Z,1008.36
2017-05-18T11:59:34.145Z,1008.38
2017-05-18T12:00:44.056Z,1008.45
2017-05-18T12:01:53.721Z,1008.47
2017-05-18T12:03:03.968Z,1008.46
2017-05-18T12:04:13.586Z,1008.45
2017-05-18T12:05:23.219Z,1008.42
2017-05-18T12:06:33.462Z,1008.45
2017-05-18T12:07:43.074Z,1008.41
2017-05-18T12:08:52.986Z,1008.43
2017-05-18T12:10:02.906Z,1008.55
2017-05-18T12:11:12.828Z,1008.58
2017-05-18T12:12:23.058Z,1008.62
2017-05-18T12:13:32.995Z,1008.64
2017-05-18T12:14:42.920Z,1008.65
2017-05-18T12:15:53.160Z,1008.7
2017-05-18T12:17:03.391Z,1008.66
2017-05-18T12:18:13.015Z,1008.64
2017-05-18T12:19:23.239Z,1008.56
2017-05-18T12:20:33.166Z,1008.5
2017-05-18T12:21:43.395Z,1008.5
2017-05-18T12:22:53.339Z,1008.47
2017-05-18T12:24:03.610Z,1008.48
2017-05-18T12:25:13.245Z,1008.46
2017-05-18T12:26:22.847Z,1008.45
2017-05-18T12:27:33.064Z,1008.43
2017-05-18T12:28:42.972Z,1008.42
2017-05-18T12:29:52.922Z,1008.4
2017-05-18T12:31:02.843Z,1008.4
2017-05-18T12:32:12.476Z,1008.41
2017-05-18T12:33:22.397Z,1008.4
2017-05-18T12:34:32.318Z,1008.41
2017-05-18T12:35:42.543Z,1008.36
2017-05-18T12:36:52.153Z,1008.35
2017-05-18T12:38:01.471Z,1008.34
2017-05-18T12:39:11.081Z,1008.34
2017-05-18T12:40:20.679Z,1008.29
2017-05-18T12:41:30.599Z,1008.28
2017-05-18T12:42:40.565Z,1008.27
2017-05-18T12:43:50.484Z,1008.27
2017-05-18T12:45:00.707Z,1008.27
2017-05-18T12:46:10.634Z,1008.24
2017-05-18T12:47:20.254Z,1008.16
2017-05-18T12:48:30.176Z,1008.13
2017-05-18T12:49:40.095Z,1008.13
2017-05-18T12:50:50.324Z,1008.13
2017-05-18T12:52:00.600Z,1008.15
2017-05-18T12:53:10.541Z,1008.14
2017-05-18T12:54:20.455Z,1008.1
2017-05-18T12:55:30.059Z,1008.12
2017-05-18T12:56:39.978Z,1008.08
2017-05-18T12:57:49.284Z,1008.08
2017-05-18T12:58:59.516Z,1008.05
2017-05-18T13:00:09.430Z,1008.01
2017-05-18T13:01:19.698Z,1008
2017-05-18T13:02:29.637Z,1007.96
2017-05-18T13:03:39.570Z,1007.88
2017-05-18T13:04:49.489Z,1007.94
2017-05-18T13:05:59.718Z,1007.93
2017-05-18T13:07:09.633Z,1007.92
2017-05-18T13:08:19.863Z,1007.87
2017-05-18T13:09:30.093Z,1007.87
2017-05-18T13:10:40.016Z,1007.83
2017-05-18T13:11:49.311Z,1007.8
2017-05-18T13:12:59.233Z,1007.76
2017-05-18T13:14:09.149Z,1007.74
2017-05-18T13:15:18.774Z,1007.75
2017-05-18T13:16:28.689Z,1007.76
2017-05-18T13:17:38.913Z,1007.75
2017-05-18T13:18:48.838Z,1007.78
2017-05-18T13:19:59.073Z,1007.74
2017-05-18T13:21:09.307Z,1007.73
2017-05-18T13:22:18.974Z,1007.73
2017-05-18T13:23:28.605Z,1007.77
2017-05-18T13:24:38.839Z,1007.72
2017-05-18T13:25:48.443Z,1007.71
2017-05-18T13:26:58.354Z,1007.62
2017-05-18T13:28:07.963Z,1007.63
2017-05-18T13:29:17.586Z,1007.66
2017-05-18T13:30:27.511Z,1007.68
2017-05-18T13:31:37.419Z,1007.66
2017-05-18T13:32:47.678Z,1007.61
2017-05-18T13:33:56.983Z,1007.59
2017-05-18T13:35:06.271Z,1007.61
2017-05-18T13:36:15.261Z,1007.64
2017-05-18T13:37:25.174Z,1007.61
2017-05-18T13:38:35.088Z,1007.59
2017-05-18T13:39:44.696Z,1007.58
2017-05-18T13:40:54.635Z,1007.52
2017-05-18T13:42:04.870Z,1007.55
2017-05-18T13:43:14.184Z,1007.48
2017-05-18T13:44:24.104Z,1007.45
2017-05-18T13:45:34.331Z,1007.36
2017-05-18T13:46:44.251Z,1007.38
2017-05-18T13:47:53.249Z,1007.31
2017-05-18T13:49:03.462Z,1007.32
2017-05-18T13:50:13.397Z,1007.32
2017-05-18T13:51:23.011Z,1007.33
2017-05-18T13:52:33.255Z,1007.32
2017-05-18T13:53:43.173Z,1007.37
2017-05-18T13:54:53.433Z,1007.37
2017-05-18T13:56:03.677Z,1007.45
2017-05-18T13:57:13.748Z,1007.48
2017-05-18T13:58:23.664Z,1007.48
2017-05-18T13:59:33.587Z,1007.46
2017-05-18T14:00:43.811Z,1007.46
2017-05-18T14:01:54.038Z,1007.46
2017-05-18T14:03:03.639Z,1007.51
2017-05-18T14:04:13.872Z,1007.51
2017-05-18T14:05:24.078Z,1007.54
2017-05-18T14:06:33.694Z,1007.51
2017-05-18T14:07:43.923Z,1007.58
2017-05-18T14:08:53.564Z,1007.55